Time;durP1;ratioP1;P1;durP2;ratioP2;P2;SDS_P1;SDS_P2;PMS_P1;PMS_P2;Temp;Humidity;BMP_temperature;BMP_pressure;BME280_temperature;BME280_humidity;BME280_pressure;Samples;Min_cycle;Max_cycle;Signal;HPM_P1;HPM_P2
2022/12/11 00:00:40;;;;;;;;;;;;;;;25.66;41.18;93332.59;4982671;28;7133;-60
2022/12/11 00:03:09;;;;;;;;;;;;;;;25.60;41.58;93340.22;4968949;28;8201;-60
2022/12/11 00:05:40;;;;;;;;;;;;;;;25.65;41.38;93339.34;4974857;28;9159;-60
2022/12/11 00:08:06;;;;;;;;;;;;;;;25.66;41.28;93334.59;4981661;28;7158;-60
2022/12/11 00:10:35;;;;;;;;;;;;;;;25.66;41.40;93332.59;4979823;28;9026;-60
2022/12/11 00:13:05;;;;;;;;;;;;;;;25.67;41.37;93342.31;4969782;28;8596;-60
2022/12/11 00:15:33;;;;;;;;;;;;;;;25.65;41.37;93338.63;4979946;28;7182;-60
2022/12/11 00:18:02;;;;;;;;;;;;;;;25.66;41.38;93343.59;4969412;28;9437;-60
2022/12/11 00:20:31;;;;;;;;;;;;;;;25.60;41.15;93345.72;4972807;28;9011;-60
2022/12/11 00:22:58;;;;;;;;;;;;;;;25.55;41.42;93341.09;4978346;28;7363;-60
2022/12/11 00:25:24;;;;;;;;;;;;;;;25.61;41.38;93349.97;4969593;28;7365;-60
2022/12/11 00:28:22;;;;;;;;;;;;;;;25.66;41.17;93345.63;4964518;28;7265;-60
2022/12/11 00:30:48;;;;;;;;;;;;;;;25.66;41.40;93345.63;4985764;28;7113;-59
2022/12/11 00:33:16;;;;;;;;;;;;;;;25.66;41.28;93343.59;4972775;28;7215;-60
2022/12/11 00:35:47;;;;;;;;;;;;;;;25.65;41.07;93344.88;4977562;28;7334;-59
2022/12/11 00:38:19;;;;;;;;;;;;;;;25.65;40.91;93344.88;4980083;28;7109;-59
2022/12/11 00:40:46;;;;;;;;;;;;;;;25.65;41.57;93339.34;4984548;28;7222;-59
2022/12/11 00:43:12;;;;;;;;;;;;;;;25.67;41.08;93347.06;4967869;28;7214;-59
2022/12/11 00:45:57;;;;;;;;;;;;;;;25.66;41.17;93337.34;4989426;28;9685;-59
2022/12/11 00:48:33;;;;;;;;;;;;;;;25.65;41.59;93344.88;4971366;28;7029;-59
2022/12/11 00:51:19;;;;;;;;;;;;;;;25.67;41.55;93347.81;4969612;28;7168;-59
2022/12/11 00:53:48;;;;;;;;;;;;;;;25.63;41.54;93343.91;4968834;28;9380;-59
2022/12/11 00:56:17;;;;;;;;;;;;;;;25.59;41.71;93340.75;4964534;28;9303;-59
2022/12/11 00:58:44;;;;;;;;;;;;;;;25.57;41.86;93344.06;4965945;28;7640;-60
2022/12/11 01:01:21;;;;;;;;;;;;;;;25.58;41.56;93345.53;4978218;28;7651;-59
2022/12/11 01:03:51;;;;;;;;;;;;;;;25.58;41.11;93344.81;4979675;28;7209;-59
2022/12/11 01:06:23;;;;;;;;;;;;;;;25.57;41.20;93344.06;4965187;28;8984;-59
2022/12/11 01:10:22;;;;;;;;;;;;;;;25.57;41.85;93344.06;4982701;28;7273;-59
2022/12/11 01:11:39;;;;;;;;;;;;;;;25.58;41.26;93348.28;4971945;28;9030;-59
2022/12/11 01:14:09;;;;;;;;;;;;;;;25.60;41.18;93348.47;4975622;28;7134;-59
2022/12/11 01:16:46;;;;;;;;;;;;;;;25.59;41.63;93341.50;4973427;28;7357;-59
2022/12/11 01:19:23;;;;;;;;;;;;;;;25.62;41.40;93345.94;4971956;28;8070;-59
2022/12/11 01:21:56;;;;;;;;;;;;;;;25.62;41.40;93350.72;4986262;28;7809;-59
2022/12/11 01:24:32;;;;;;;;;;;;;;;25.60;41.11;93342.97;4974573;28;7228;-59
2022/12/11 01:27:01;;;;;;;;;;;;;;;25.62;40.96;93356.22;4973440;28;7251;-59
2022/12/11 01:29:29;;;;;;;;;;;;;;;25.60;41.56;93362.25;4974424;28;8749;-59
2022/12/11 01:31:57;;;;;;;;;;;;;;;25.51;41.37;93359.97;4968330;28;9024;-59
2022/12/11 01:34:33;;;;;;;;;;;;;;;25.48;41.82;93366.53;4969497;28;7070;-59
2022/12/11 01:37:05;;;;;;;;;;;;;;;25.49;41.94;93367.28;4982406;28;7181;-59
2022/12/11 01:39:37;;;;;;;;;;;;;;;25.48;41.92;93376.81;4975631;28;7091;-59
2022/12/11 01:42:09;;;;;;;;;;;;;;;25.47;41.89;93378.81;4982489;28;7211;-59
2022/12/11 01:44:35;;;;;;;;;;;;;;;25.46;42.08;93377.34;4974118;28;7108;-59
2022/12/11 01:47:01;;;;;;;;;;;;;;;25.47;41.88;93378.81;4973411;28;7248;-59
2022/12/11 01:49:29;;;;;;;;;;;;;;;25.49;41.82;93375.53;4965363;28;7358;-59
2022/12/11 01:52:05;;;;;;;;;;;;;;;25.48;42.03;93385.81;4965653;28;7335;-59
2022/12/11 01:54:34;;;;;;;;;;;;;;;25.47;41.84;93384.31;4975100;28;8726;-59
2022/12/11 01:57:10;;;;;;;;;;;;;;;25.48;41.64;93391.31;4975216;28;7137;-59
2022/12/11 01:59:42;;;;;;;;;;;;;;;25.47;41.64;93389.09;4975061;28;9155;-59
2022/12/11 02:02:35;;;;;;;;;;;;;;;25.48;41.88;93374.03;4985030;28;9305;-59
2022/12/11 02:05:03;;;;;;;;;;;;;;;25.48;41.95;93382.31;4988400;28;7124;-59
2022/12/11 02:07:45;;;;;;;;;;;;;;;25.47;41.75;93387.06;4990065;28;8309;-59
2022/12/11 02:10:11;;;;;;;;;;;;;;;25.46;41.77;93382.84;4966160;28;7054;-60
2022/12/11 02:12:58;;;;;;;;;;;;;;;25.43;42.00;93379.16;4974295;28;9062;-59
2022/12/11 02:15:36;;;;;;;;;;;;;;;25.46;42.00;93382.84;4963216;28;7305;-59
2022/12/11 02:18:12;;;;;;;;;;;;;;;25.46;41.73;93388.34;4967499;28;8543;-59
2022/12/11 02:20:38;;;;;;;;;;;;;;;25.45;41.67;93397.88;4980822;28;9357;-59
2022/12/11 02:23:12;;;;;;;;;;;;;;;25.46;41.96;93393.88;4978249;28;9043;-59
2022/12/11 02:25:46;;;;;;;;;;;;;;;25.45;41.06;93392.38;4978972;28;7113;-59
2022/12/11 02:28:29;;;;;;;;;;;;;;;25.45;41.81;93391.66;4974235;28;7006;-59
2022/12/11 02:31:05;;;;;;;;;;;;;;;25.46;41.42;93396.63;4966509;28;8995;-59
2022/12/11 02:33:55;;;;;;;;;;;;;;;25.46;42.06;93393.88;4968584;28;8982;-59
2022/12/11 02:36:27;;;;;;;;;;;;;;;25.46;41.77;93388.34;4973605;28;7387;-59
2022/12/11 02:39:03;;;;;;;;;;;;;;;25.47;41.76;93381.56;4971689;28;7363;-59
2022/12/11 02:41:35;;;;;;;;;;;;;;;25.46;41.93;93380.09;4981860;28;10478;-59
2022/12/11 02:44:04;;;;;;;;;;;;;;;25.46;41.50;93382.84;4973276;28;9107;-59
2022/12/11 02:46:58;;;;;;;;;;;;;;;25.46;41.46;93379.34;4973122;28;7338;-59
2022/12/11 02:49:42;;;;;;;;;;;;;;;25.45;41.75;93378.59;4934305;28;7374;-59
2022/12/11 02:52:41;;;;;;;;;;;;;;;25.46;41.45;93379.34;4936967;28;7358;-59
2022/12/11 02:55:14;;;;;;;;;;;;;;;25.46;41.44;93382.84;4860502;29;7959;-60
2022/12/11 02:58:20;;;;;;;;;;;;;;;25.45;41.90;93381.34;4858213;29;7229;-59
2022/12/11 03:00:47;;;;;;;;;;;;;;;25.45;41.64;93384.13;4865590;29;7295;-59
2022/12/11 03:03:22;;;;;;;;;;;;;;;25.46;41.43;93376.59;4864097;29;8589;-59
2022/12/11 03:05:48;;;;;;;;;;;;;;;25.44;41.48;93379.91;4858738;29;7103;-59
2022/12/11 03:08:17;;;;;;;;;;;;;;;25.45;41.62;93380.63;4861548;29;7183;-59
2022/12/11 03:10:47;;;;;;;;;;;;;;;25.45;41.08;93378.59;4862133;29;7208;-59
2022/12/11 03:13:26;;;;;;;;;;;;;;;25.44;41.26;93371.63;4864433;29;7023;-59
2022/12/11 03:16:41;;;;;;;;;;;;;;;25.45;41.62;93378.59;4853914;29;9223;-61
2022/12/11 03:19:24;;;;;;;;;;;;;;;25.45;41.81;93381.34;4839321;29;7815;-61
2022/12/11 03:21:59;;;;;;;;;;;;;;;25.43;41.57;93376.41;4824804;29;9378;-61
2022/12/11 03:24:34;;;;;;;;;;;;;;;25.43;41.57;93381.16;4826273;29;9291;-60
2022/12/11 03:27:14;;;;;;;;;;;;;;;25.43;41.46;93375.66;4869944;29;7467;-61
2022/12/11 03:30:03;;;;;;;;;;;;;;;25.42;41.26;93379.69;4898615;28;7224;-61
2022/12/11 03:32:39;;;;;;;;;;;;;;;25.42;41.61;93382.44;4965081;28;7290;-61
2022/12/11 03:35:26;;;;;;;;;;;;;;;25.43;41.39;93381.16;4965068;28;7576;-61
2022/12/11 03:38:05;;;;;;;;;;;;;;;25.43;41.23;93372.91;4959361;28;7583;-61
2022/12/11 03:40:35;;;;;;;;;;;;;;;25.43;41.39;93381.16;4966917;28;7395;-61
2022/12/11 03:43:10;;;;;;;;;;;;;;;25.43;41.28;93390.16;4971506;28;7452;-61
2022/12/11 03:45:51;;;;;;;;;;;;;;;25.42;41.55;93382.44;4954448;28;7408;-61
2022/12/11 03:48:29;;;;;;;;;;;;;;;25.44;41.76;93390.91;4952675;28;9626;-61
2022/12/11 03:51:01;;;;;;;;;;;;;;;25.42;41.15;93394.16;4968781;28;7527;-60
2022/12/11 03:53:29;;;;;;;;;;;;;;;25.43;40.77;93403.94;4959302;28;9073;-61
2022/12/11 03:56:07;;;;;;;;;;;;;;;25.43;41.70;93408.69;4973337;28;7022;-61
2022/12/11 03:58:33;;;;;;;;;;;;;;;25.42;41.32;93404.47;4965942;28;9448;-61
2022/12/11 04:01:01;;;;;;;;;;;;;;;25.43;41.19;93414.19;4969766;28;9409;-60
2022/12/11 04:03:27;;;;;;;;;;;;;;;25.42;41.64;93415.47;4977312;28;9173;-61
2022/12/11 04:05:58;;;;;;;;;;;;;;;25.41;41.20;93413.97;4972457;28;7006;-60
2022/12/11 04:08:27;;;;;;;;;;;;;;;25.42;41.27;93412.72;4972166;28;7246;-60
2022/12/11 04:11:33;;;;;;;;;;;;;;;25.44;40.97;93410.19;4971401;28;7068;-60
2022/12/11 04:13:40;;;;;;;;;;;;;;;25.43;41.49;93403.19;4973551;28;7302;-60
2022/12/11 04:16:07;;;;;;;;;;;;;;;25.43;41.18;93406.69;4956147;28;8298;-60
2022/12/11 04:24:16;;;;;;;;;;;;;;;25.39;41.28;93388.97;4973420;28;7328;-60
2022/12/11 04:26:52;;;;;;;;;;;;;;;25.41;41.24;93395.44;4988460;28;7353;-61
2022/12/11 04:29:28;;;;;;;;;;;;;;;25.42;40.88;93398.97;4965548;28;9455;-60
2022/12/11 04:31:54;;;;;;;;;;;;;;;25.42;41.47;93398.97;4967015;28;7262;-60
2022/12/11 04:34:27;;;;;;;;;;;;;;;25.41;41.30;93394.69;4964468;28;7032;-60
2022/12/11 04:36:58;;;;;;;;;;;;;;;25.42;41.32;93393.44;4981780;28;7278;-60
2022/12/11 04:39:27;;;;;;;;;;;;;;;25.41;40.72;93392.69;4985093;28;7275;-60
2022/12/11 04:41:53;;;;;;;;;;;;;;;25.41;40.76;93389.19;4987546;28;7127;-60
2022/12/11 04:44:26;;;;;;;;;;;;;;;25.41;40.97;93397.44;4987392;28;7201;-60
2022/12/11 04:47:03;;;;;;;;;;;;;;;25.42;41.30;93390.69;4980282;28;7892;-60
2022/12/11 04:49:31;;;;;;;;;;;;;;;25.42;41.56;93396.22;4970536;28;9120;-60
2022/12/11 04:52:21;;;;;;;;;;;;;;;25.42;41.20;93396.22;4981797;28;7121;-60
2022/12/11 04:54:50;;;;;;;;;;;;;;;25.42;41.69;93383.16;4970870;28;9003;-60
2022/12/11 04:57:16;;;;;;;;;;;;;;;25.43;41.11;93397.66;4970087;28;7049;-60
2022/12/11 04:59:49;;;;;;;;;;;;;;;25.43;41.49;93395.66;4962246;28;7214;-61
2022/12/11 05:02:16;;;;;;;;;;;;;;;25.43;40.87;93384.66;4972474;28;8697;-61
2022/12/11 05:04:42;;;;;;;;;;;;;;;25.44;41.26;93385.41;4969839;28;7793;-60
2022/12/11 05:07:10;;;;;;;;;;;;;;;25.44;41.34;93385.41;4970703;28;7269;-61
2022/12/11 05:09:38;;;;;;;;;;;;;;;25.43;41.57;93389.41;4972005;28;7818;-60
2022/12/11 05:12:13;;;;;;;;;;;;;;;25.40;41.01;93380.19;4972195;28;9440;-60
2022/12/11 05:14:58;;;;;;;;;;;;;;;25.40;41.11;93391.19;4976541;28;7274;-60
2022/12/11 05:17:24;;;;;;;;;;;;;;;25.41;41.32;93381.66;4971558;28;7248;-60
2022/12/11 05:19:51;;;;;;;;;;;;;;;25.42;41.53;93387.94;4976099;28;7022;-60
2022/12/11 05:22:32;;;;;;;;;;;;;;;25.41;40.65;93380.91;4990070;28;7365;-60
2022/12/11 05:24:59;;;;;;;;;;;;;;;25.39;41.13;93375.97;4977136;28;7400;-61
2022/12/11 05:27:28;;;;;;;;;;;;;;;25.39;40.61;93377.97;4971129;28;7223;-61
2022/12/11 05:29:56;;;;;;;;;;;;;;;25.39;41.25;93383.47;4973741;28;7234;-60
2022/12/11 05:32:24;;;;;;;;;;;;;;;25.38;41.14;93374.47;4975867;28;7680;-60
2022/12/11 05:35:03;;;;;;;;;;;;;;;25.38;41.53;93373.75;4974970;28;9332;-60
2022/12/11 05:37:40;;;;;;;;;;;;;;;25.38;41.17;93371.00;4975257;28;7287;-60
2022/12/11 05:40:10;;;;;;;;;;;;;;;25.40;41.20;93373.94;4984077;28;9940;-60
2022/12/11 05:42:39;;;;;;;;;;;;;;;25.40;41.32;93368.44;4974383;28;7034;-60
2022/12/11 05:45:37;;;;;;;;;;;;;;;25.39;40.57;93375.22;4967779;28;9354;-61
2022/12/11 05:48:05;;;;;;;;;;;;;;;25.39;41.11;93375.22;4955634;28;7093;-61
2022/12/11 05:50:33;;;;;;;;;;;;;;;25.40;41.37;93384.97;4965692;28;7821;-60
2022/12/11 05:52:59;;;;;;;;;;;;;;;25.39;40.44;93386.97;4957009;28;9410;-60
2022/12/11 05:55:44;;;;;;;;;;;;;;;25.39;40.54;93394.47;4970511;28;6972;-60
2022/12/11 05:58:22;;;;;;;;;;;;;;;25.39;40.88;93383.47;4958453;28;7420;-60
2022/12/11 06:00:57;;;;;;;;;;;;;;;25.39;41.13;93389.72;4957578;28;9477;-60
2022/12/11 06:03:28;;;;;;;;;;;;;;;25.37;41.04;93384.00;4954980;28;7303;-60
2022/12/11 06:05:53;;;;;;;;;;;;;;;25.38;41.31;93382.00;4951169;28;8281;-60
2022/12/11 06:08:19;;;;;;;;;;;;;;;25.38;41.43;93390.25;4953081;28;7276;-60
2022/12/11 06:10:47;;;;;;;;;;;;;;;25.39;41.17;93392.47;4955598;28;6954;-60
2022/12/11 06:13:16;;;;;;;;;;;;;;;25.40;41.12;93401.47;4959186;28;7767;-60
2022/12/11 06:15:44;;;;;;;;;;;;;;;25.47;40.43;93397.38;4952842;28;7289;-61
2022/12/11 06:18:12;;;;;;;;;;;;;;;25.41;41.13;93380.91;4967140;28;7566;-60
2022/12/11 06:20:39;;;;;;;;;;;;;;;25.38;40.88;93390.25;4952007;28;7476;-60
2022/12/11 06:23:07;;;;;;;;;;;;;;;25.36;41.40;93384.53;4951363;28;7252;-61
2022/12/11 06:25:38;;;;;;;;;;;;;;;25.38;41.08;93384.75;4969635;28;7876;-60
2022/12/11 06:28:11;;;;;;;;;;;;;;;25.36;41.03;93390.78;4973612;28;7098;-60
2022/12/11 06:30:39;;;;;;;;;;;;;;;25.36;41.22;93388.03;4980226;28;7569;-60
2022/12/11 06:33:06;;;;;;;;;;;;;;;25.39;40.68;93389.72;4973302;28;10276;-60
2022/12/11 06:35:37;;;;;;;;;;;;;;;25.43;40.59;93384.66;4977420;28;7443;-60
2022/12/11 06:38:03;;;;;;;;;;;;;;;25.48;41.02;93374.03;4982171;28;9167;-61
2022/12/11 06:40:29;;;;;;;;;;;;;;;25.47;40.11;93376.06;4969230;28;7067;-60
2022/12/11 06:42:57;;;;;;;;;;;;;;;25.44;40.15;93368.88;4978583;28;7546;-61
2022/12/11 06:45:25;;;;;;;;;;;;;;;25.46;39.97;93376.59;4972129;28;7263;-60
2022/12/11 06:47:51;;;;;;;;;;;;;;;25.44;40.13;93368.88;4968003;28;7219;-61
2022/12/11 06:50:17;;;;;;;;;;;;;;;25.44;40.61;93368.88;4984506;28;9425;-61
2022/12/11 06:52:44;;;;;;;;;;;;;;;25.44;41.00;93379.91;4978609;28;7630;-60
2022/12/11 06:55:37;;;;;;;;;;;;;;;25.42;41.02;93380.41;4968237;28;7054;-60
2022/12/11 06:58:03;;;;;;;;;;;;;;;25.42;40.87;93376.94;4934743;28;7059;-61
2022/12/11 07:00:30;;;;;;;;;;;;;;;25.41;40.92;93389.94;4931786;28;8934;-61
2022/12/11 07:02:57;;;;;;;;;;;;;;;25.43;41.07;93392.16;4930105;29;7294;-61
2022/12/11 07:05:23;;;;;;;;;;;;;;;25.42;41.01;93383.16;4925558;28;7564;-61
2022/12/11 07:07:53;;;;;;;;;;;;;;;25.42;41.04;93388.66;4934284;28;7706;-61
2022/12/11 07:10:20;;;;;;;;;;;;;;;25.42;40.78;93382.44;4932834;28;9076;-61
2022/12/11 07:12:51;;;;;;;;;;;;;;;25.43;40.85;93384.66;4934943;28;8747;-61
2022/12/11 07:15:27;;;;;;;;;;;;;;;25.43;41.39;93378.41;4929398;28;7671;-61
2022/12/11 07:17:55;;;;;;;;;;;;;;;25.44;41.50;93377.13;4911501;29;9029;-61
2022/12/11 07:20:23;;;;;;;;;;;;;;;25.44;41.20;93385.41;4931756;28;7079;-61
2022/12/11 07:22:59;;;;;;;;;;;;;;;25.51;40.67;93384.75;4927356;28;7047;-61
2022/12/11 07:25:36;;;;;;;;;;;;;;;25.50;41.57;93386.00;4936871;28;9395;-60
2022/12/11 07:28:11;;;;;;;;;;;;;;;25.54;41.12;93382.91;4938981;28;7129;-61
2022/12/11 07:30:38;;;;;;;;;;;;;;;25.56;40.59;93383.13;4923737;28;7028;-61
2022/12/11 07:33:05;;;;;;;;;;;;;;;25.57;40.33;93388.13;4923570;29;7284;-61
2022/12/11 07:35:36;;;;;;;;;;;;;;;25.58;40.59;93384.06;4961317;28;7097;-61
2022/12/11 07:38:07;;;;;;;;;;;;;;;25.60;41.26;93386.31;4982617;28;7105;-61
2022/12/11 07:40:37;;;;;;;;;;;;;;;25.59;40.35;93390.31;4971982;28;7755;-61
2022/12/11 07:43:05;;;;;;;;;;;;;;;25.62;40.55;93389.97;4963490;28;7276;-61
2022/12/11 07:45:34;;;;;;;;;;;;;;;25.62;39.40;93387.22;4975785;28;7917;-61
2022/12/11 07:48:02;;;;;;;;;;;;;;;25.62;39.64;93387.22;4968922;28;7247;-61
2022/12/11 07:50:30;;;;;;;;;;;;;;;25.61;39.42;93383.00;4973395;28;8195;-61
2022/12/11 07:53:01;;;;;;;;;;;;;;;25.62;39.31;93383.75;4963180;28;7119;-61
2022/12/11 07:55:29;;;;;;;;;;;;;;;25.56;38.79;93383.88;4966289;28;7307;-61
2022/12/11 07:57:56;;;;;;;;;;;;;;;25.55;39.31;93378.91;4961363;28;7320;-61
2022/12/11 08:00:25;;;;;;;;;;;;;;;25.57;39.86;93385.38;4965075;28;8714;-61
2022/12/11 08:03:19;;;;;;;;;;;;;;;25.59;39.49;93391.06;4967457;28;9207;-61
2022/12/11 08:05:51;;;;;;;;;;;;;;;25.59;39.95;93391.06;4955697;28;7040;-61
2022/12/11 08:08:18;;;;;;;;;;;;;;;25.57;39.11;93388.13;4961281;28;7654;-61
2022/12/11 08:10:44;;;;;;;;;;;;;;;25.55;39.52;93387.91;4977142;28;7563;-61
2022/12/11 08:13:14;;;;;;;;;;;;;;;25.54;39.47;93391.19;4966749;28;7557;-60
2022/12/11 08:15:42;;;;;;;;;;;;;;;25.55;39.37;93396.16;4962903;28;7026;-61
2022/12/11 08:18:10;;;;;;;;;;;;;;;25.55;39.42;93401.69;4967087;28;9284;-60
2022/12/11 08:20:44;;;;;;;;;;;;;;;25.57;40.21;93401.88;4965541;28;7101;-60
2022/12/11 08:23:10;;;;;;;;;;;;;;;25.60;39.81;93400.06;4979704;28;7287;-61
2022/12/11 08:25:40;;;;;;;;;;;;;;;25.62;39.97;93398.25;4973723;28;8985;-60
2022/12/11 08:28:07;;;;;;;;;;;;;;;25.62;39.70;93401.00;4981745;28;7215;-60
2022/12/11 08:30:34;;;;;;;;;;;;;;;25.66;40.22;93395.94;4978338;28;7385;-60
2022/12/11 08:33:02;;;;;;;;;;;;;;;25.62;40.06;93395.50;4977151;28;7268;-60
2022/12/11 08:35:28;;;;;;;;;;;;;;;25.71;39.53;93392.28;4977355;28;7340;-60
2022/12/11 08:37:54;;;;;;;;;;;;;;;25.65;39.76;93391.69;4974510;28;8846;-60
2022/12/11 08:40:20;;;;;;;;;;;;;;;25.71;40.76;93389.53;4976999;28;7379;-60
2022/12/11 08:42:47;;;;;;;;;;;;;;;25.73;40.27;93386.97;4967739;28;7065;-61
2022/12/11 08:45:15;;;;;;;;;;;;;;;25.74;40.31;93390.47;4977370;28;7187;-61
2022/12/11 08:47:44;;;;;;;;;;;;;;;25.75;40.85;93395.44;4981388;28;8730;-61
2022/12/11 08:50:17;;;;;;;;;;;;;;;25.79;40.82;93395.13;4963014;28;9076;-61
2022/12/11 08:52:45;;;;;;;;;;;;;;;25.80;41.02;93389.06;4966020;28;7061;-61
2022/12/11 08:55:11;;;;;;;;;;;;;;;25.81;40.66;93398.84;4962499;28;7125;-61
2022/12/11 08:57:40;;;;;;;;;;;;;;;25.81;40.29;93393.31;4971182;28;7081;-61
2022/12/11 09:00:11;;;;;;;;;;;;;;;25.80;40.15;93391.09;4971058;28;7251;-61
2022/12/11 09:02:37;;;;;;;;;;;;;;;25.81;40.19;93396.09;4975956;28;7235;-61
2022/12/11 09:05:08;;;;;;;;;;;;;;;25.78;40.28;93388.88;4965956;28;7186;-61
2022/12/11 09:07:38;;;;;;;;;;;;;;;25.77;40.53;93394.94;4976891;28;7152;-61
2022/12/11 09:10:08;;;;;;;;;;;;;;;25.76;40.72;93388.69;4982749;28;7334;-61
2022/12/11 09:12:43;;;;;;;;;;;;;;;25.73;41.08;93389.75;4980552;28;7227;-61
2022/12/11 09:15:10;;;;;;;;;;;;;;;25.73;41.01;93389.75;4960426;28;7149;-61
2022/12/11 09:17:36;;;;;;;;;;;;;;;25.72;41.19;93384.78;4965845;28;7267;-61
2022/12/11 09:20:05;;;;;;;;;;;;;;;25.72;40.63;93376.50;4967756;28;7084;-61
2022/12/11 09:22:33;;;;;;;;;;;;;;;25.73;41.70;93389.75;4963840;28;7454;-61
2022/12/11 09:25:00;;;;;;;;;;;;;;;25.70;41.04;93379.81;4969354;28;7293;-61
2022/12/11 09:27:28;;;;;;;;;;;;;;;25.72;41.34;93380.00;4979113;28;7220;-61
2022/12/11 09:29:54;;;;;;;;;;;;;;;25.70;40.88;93377.06;4977005;28;7877;-61
2022/12/11 09:32:20;;;;;;;;;;;;;;;25.73;40.86;93384.22;4970484;28;7023;-61
2022/12/11 09:34:53;;;;;;;;;;;;;;;25.75;41.46;93367.91;4975083;28;7248;-61
2022/12/11 09:37:20;;;;;;;;;;;;;;;25.75;41.55;93376.16;4967450;28;7437;-60
2022/12/11 09:39:48;;;;;;;;;;;;;;;25.74;41.16;93374.69;4968620;28;8248;-61
2022/12/11 09:42:19;;;;;;;;;;;;;;;25.78;41.16;93363.34;4967943;28;7079;-61
2022/12/11 09:44:58;;;;;;;;;;;;;;;25.81;41.34;93357.53;4976898;28;7354;-61
2022/12/11 09:47:43;;;;;;;;;;;;;;;25.81;41.21;93354.75;4968059;28;7275;-61
2022/12/11 09:50:09;;;;;;;;;;;;;;;25.83;40.48;93346.69;4981352;28;7168;-61
2022/12/11 09:52:58;;;;;;;;;;;;;;;25.86;40.86;93356.63;4965922;28;9008;-61
2022/12/11 09:55:49;;;;;;;;;;;;;;;25.83;41.15;93348.72;4973980;28;7538;-61
2022/12/11 09:58:42;;;;;;;;;;;;;;;25.87;40.51;93344.34;4971698;28;7068;-61
2022/12/11 10:01:15;;;;;;;;;;;;;;;25.86;41.22;93350.41;4980571;28;7011;-61
2022/12/11 10:04:30;;;;;;;;;;;;;;;25.89;40.75;93347.28;4962843;28;7297;-61
2022/12/11 10:07:17;;;;;;;;;;;;;;;25.89;40.66;93347.28;4960263;28;10176;-61
2022/12/11 10:09:55;;;;;;;;;;;;;;;25.89;41.18;93352.06;4971759;28;7254;-61
2022/12/11 10:12:33;;;;;;;;;;;;;;;25.91;41.27;93344.75;4976551;28;7675;-61
2022/12/11 10:15:05;;;;;;;;;;;;;;;25.94;41.02;93340.91;4973803;28;7249;-61
2022/12/11 10:17:43;;;;;;;;;;;;;;;25.93;40.87;93346.94;4970555;28;7193;-61
2022/12/11 10:20:30;;;;;;;;;;;;;;;25.93;41.23;93347.69;4969416;28;9423;-61
2022/12/11 10:22:58;;;;;;;;;;;;;;;25.84;41.29;93337.16;4985177;28;6998;-61
2022/12/11 10:25:34;;;;;;;;;;;;;;;25.82;41.56;93331.44;4974488;28;8086;-61
2022/12/11 10:28:13;;;;;;;;;;;;;;;25.80;41.21;93325.72;4978216;28;7053;-61
2022/12/11 10:31:06;;;;;;;;;;;;;;;25.81;41.27;93312.69;4969055;28;7042;-61
2022/12/11 10:33:59;;;;;;;;;;;;;;;25.82;41.09;93311.41;4963638;28;9474;-61
2022/12/11 10:36:35;;;;;;;;;;;;;;;25.83;40.81;93299.13;4984222;28;7103;-61
2022/12/11 10:39:13;;;;;;;;;;;;;;;25.82;41.00;93298.38;4976663;28;9341;-61
2022/12/11 10:41:58;;;;;;;;;;;;;;;25.79;41.18;93293.97;4968212;28;6987;-61
2022/12/11 10:45:19;;;;;;;;;;;;;;;25.77;41.22;93299.28;4984382;28;9615;-61
2022/12/11 10:47:48;;;;;;;;;;;;;;;25.81;40.98;93301.69;4953403;28;9192;-61
2022/12/11 10:50:24;;;;;;;;;;;;;;;25.78;41.18;93300.75;4966916;28;7152;-61
2022/12/11 10:52:57;;;;;;;;;;;;;;;25.81;40.89;93296.91;4947779;28;7011;-61
2022/12/11 10:55:36;;;;;;;;;;;;;;;25.82;40.94;93286.63;4969522;28;8470;-61
2022/12/11 10:58:05;;;;;;;;;;;;;;;25.79;41.47;93282.19;4967532;28;7038;-61
2022/12/11 11:00:59;;;;;;;;;;;;;;;25.81;40.98;93285.91;4955353;28;7180;-61
2022/12/11 11:03:41;;;;;;;;;;;;;;;25.84;41.38;93284.81;4967934;28;7479;-61
2022/12/11 11:06:18;;;;;;;;;;;;;;;25.87;40.83;93283.00;4971485;28;9042;-61
2022/12/11 11:08:49;;;;;;;;;;;;;;;25.91;41.27;93278.63;4965450;28;10200;-61
2022/12/11 11:11:35;;;;;;;;;;;;;;;25.91;41.05;93281.38;4967119;28;7282;-61
2022/12/11 11:14:19;;;;;;;;;;;;;;;25.92;41.22;93282.13;4963378;28;7145;-61
2022/12/11 11:16:50;;;;;;;;;;;;;;;25.84;40.88;93275.78;4956852;28;7599;-61
2022/12/11 11:19:33;;;;;;;;;;;;;;;25.87;40.93;93278.22;4948624;28;7619;-61
2022/12/11 11:22:13;;;;;;;;;;;;;;;25.86;41.40;93273.28;4949462;28;9031;-61
2022/12/11 11:25:15;;;;;;;;;;;;;;;25.77;41.01;93263.47;4982556;28;8233;-61
2022/12/11 11:27:54;;;;;;;;;;;;;;;25.79;41.52;93251.91;4967153;28;9371;-60
2022/12/11 11:30:23;;;;;;;;;;;;;;;25.78;41.35;93250.41;4985343;28;7280;-61
2022/12/11 11:33:01;;;;;;;;;;;;;;;25.81;42.07;93255.59;4968395;28;7230;-61
2022/12/11 11:35:32;;;;;;;;;;;;;;;25.81;41.73;93257.59;4980569;28;9617;-61
2022/12/11 11:38:18;;;;;;;;;;;;;;;25.83;42.36;93250.28;4980233;28;7254;-61
2022/12/11 11:40:57;;;;;;;;;;;;;;;25.88;42.03;93248.66;4983367;28;7219;-61
2022/12/11 11:43:45;;;;;;;;;;;;;;;25.86;41.59;93248.47;4969738;28;7013;-61
2022/12/11 11:46:26;;;;;;;;;;;;;;;25.85;42.03;93247.00;4970011;28;7030;-61
2022/12/11 11:49:12;;;;;;;;;;;;;;;25.88;41.31;93243.88;4966380;28;7062;-61
2022/12/11 11:51:46;;;;;;;;;;;;;;;25.85;42.14;93242.22;4960440;28;8692;-61
2022/12/11 11:54:51;;;;;;;;;;;;;;;25.85;41.59;93241.47;4983084;28;8953;-61
2022/12/11 11:57:41;;;;;;;;;;;;;;;25.87;41.66;93244.44;4957902;28;7176;-61
2022/12/11 12:00:20;;;;;;;;;;;;;;;25.85;41.90;93228.44;4967302;28;7166;-61
2022/12/11 12:02:53;;;;;;;;;;;;;;;25.88;41.32;93229.38;4978099;28;7063;-61
2022/12/11 12:05:31;;;;;;;;;;;;;;;25.87;42.11;93223.13;4964691;28;7042;-61
2022/12/11 12:08:21;;;;;;;;;;;;;;;25.90;41.52;93222.03;4966403;28;7363;-61
2022/12/11 12:11:09;;;;;;;;;;;;;;;25.95;41.46;93220.41;4980520;28;9353;-60
2022/12/11 12:14:01;;;;;;;;;;;;;;;26.02;41.86;93217.72;4970286;28;7100;-61
2022/12/11 12:16:52;;;;;;;;;;;;;;;26.02;41.45;93216.97;4968293;28;7886;-61
2022/12/11 12:19:38;;;;;;;;;;;;;;;26.03;41.35;93210.91;4983174;28;7300;-61
2022/12/11 12:22:43;;;;;;;;;;;;;;;26.01;41.84;93216.25;4969792;28;7028;-61
2022/12/11 12:25:35;;;;;;;;;;;;;;;26.01;41.77;93216.25;4986435;28;7316;-61
2022/12/11 12:28:21;;;;;;;;;;;;;;;26.03;41.86;93213.69;4979610;28;7138;-61
2022/12/11 12:31:15;;;;;;;;;;;;;;;26.06;41.28;93214.63;4970819;28;7346;-61
2022/12/11 12:34:01;;;;;;;;;;;;;;;26.08;41.48;93204.56;4981973;28;7409;-61
2022/12/11 12:36:45;;;;;;;;;;;;;;;26.07;41.87;93210.59;4981098;28;9083;-61
2022/12/11 12:39:27;;;;;;;;;;;;;;;26.05;41.79;93204.88;4984882;28;7260;-60
2022/12/11 12:42:11;;;;;;;;;;;;;;;26.08;41.91;93209.28;4974161;28;9337;-60
2022/12/11 12:44:46;;;;;;;;;;;;;;;26.11;41.90;93211.75;4979873;28;7886;-61
2022/12/11 12:47:17;;;;;;;;;;;;;;;26.14;41.92;93207.19;4982771;28;7458;-61
2022/12/11 12:49:49;;;;;;;;;;;;;;;26.19;41.42;93208.31;4979932;28;7300;-60
2022/12/11 12:52:28;;;;;;;;;;;;;;;26.22;41.78;93204.44;4970755;28;7387;-60
2022/12/11 12:55:30;;;;;;;;;;;;;;;26.26;41.87;93196.56;4974487;28;8410;-61
2022/12/11 12:58:25;;;;;;;;;;;;;;;26.31;41.49;93195.69;4947091;28;7166;-61
2022/12/11 13:01:16;;;;;;;;;;;;;;;26.34;41.28;93197.34;4947652;28;7288;-61
2022/12/11 13:03:58;;;;;;;;;;;;;;;26.29;41.01;93201.00;4953098;28;9435;-61
2022/12/11 13:06:46;;;;;;;;;;;;;;;26.26;41.15;93204.84;4937329;28;7042;-61
2022/12/11 13:09:21;;;;;;;;;;;;;;;26.27;41.63;93204.31;4949731;28;6980;-61
2022/12/11 13:11:56;;;;;;;;;;;;;;;26.26;41.54;93199.31;4949542;28;7307;-60
2022/12/11 13:14:32;;;;;;;;;;;;;;;26.24;41.35;93201.88;4951763;28;9166;-61
2022/12/11 13:17:30;;;;;;;;;;;;;;;26.24;41.49;93204.63;4951287;28;7312;-61
2022/12/11 13:20:15;;;;;;;;;;;;;;;26.25;41.10;93203.38;4936787;28;9273;-60
2022/12/11 13:23:06;;;;;;;;;;;;;;;26.28;41.24;93199.50;4952137;28;8221;-61
2022/12/11 13:26:03;;;;;;;;;;;;;;;26.31;41.59;93201.19;4947575;28;7270;-60
2022/12/11 13:28:49;;;;;;;;;;;;;;;26.27;41.57;93201.56;4924021;28;8458;-61
2022/12/11 13:31:15;;;;;;;;;;;;;;;26.26;41.42;93210.34;4949588;28;8678;-60
2022/12/11 13:33:48;;;;;;;;;;;;;;;26.25;41.10;93217.16;4955521;28;7256;-61
2022/12/11 13:36:16;;;;;;;;;;;;;;;26.27;41.13;93220.09;4980281;28;7017;-61
2022/12/11 13:38:54;;;;;;;;;;;;;;;26.28;41.37;93221.56;4978722;28;7207;-60
2022/12/11 13:41:25;;;;;;;;;;;;;;;26.25;40.41;93217.91;4972486;28;7157;-60
2022/12/11 13:43:56;;;;;;;;;;;;;;;26.23;40.91;93225.22;4968476;28;7113;-60